createdAt,value
2017-11-18T00:00:07.809Z,100556.76
2017-11-18T00:02:33.771Z,100544.05
2017-11-18T00:04:59.726Z,100549.86
2017-11-18T00:07:25.660Z,100542.99
2017-11-18T00:09:51.592Z,100548.18
2017-11-18T00:12:17.555Z,100546.97
2017-11-18T00:14:43.493Z,100533.91
2017-11-18T00:17:09.450Z,100534.69
2017-11-18T00:19:35.373Z,100539.08
2017-11-18T00:22:01.301Z,100541.85
2017-11-18T00:24:27.229Z,100539.98
2017-11-18T00:26:53.162Z,100535.47
2017-11-18T00:29:19.116Z,100536.79
2017-11-18T00:31:45.054Z,100527.23
2017-11-18T00:34:11.001Z,100524.16
2017-11-18T00:36:36.929Z,100526.53
2017-11-18T00:39:02.880Z,100520.64
2017-11-18T00:41:28.840Z,100514.59
2017-11-18T00:43:54.809Z,100513.78
2017-11-18T00:46:20.802Z,100513.66
2017-11-18T00:48:46.742Z,100516.34
2017-11-18T00:51:12.698Z,100520.72
2017-11-18T00:53:38.689Z,100516.22
2017-11-18T00:56:04.600Z,100516.64
2017-11-18T00:58:30.556Z,100517.09
2017-11-18T01:00:56.508Z,100521.94
2017-11-18T01:03:22.446Z,100519.96
2017-11-18T01:05:48.382Z,100522.45
2017-11-18T01:08:14.323Z,100525.56
2017-11-18T01:10:40.256Z,100521.59
2017-11-18T01:13:06.179Z,100527.95
2017-11-18T01:15:32.134Z,100525.72
2017-11-18T01:17:58.109Z,100522.27
2017-11-18T01:20:24.042Z,100522.72
2017-11-18T01:22:49.987Z,100517.66
2017-11-18T01:25:15.917Z,100512.24
2017-11-18T01:27:41.867Z,100512.34
2017-11-18T01:30:07.829Z,100505.16
2017-11-18T01:32:33.767Z,100500.98
2017-11-18T01:34:59.710Z,100504.23
2017-11-18T01:37:25.753Z,100506.65
2017-11-18T01:39:51.682Z,100510.41
2017-11-18T01:42:17.613Z,100510.55
2017-11-18T01:44:43.562Z,100505.73
2017-11-18T01:47:09.512Z,100496.56
2017-11-18T01:49:35.440Z,100492.75
2017-11-18T01:52:01.384Z,100492.30
2017-11-18T01:54:27.318Z,100486.89
2017-11-18T01:56:53.264Z,100481.67
2017-11-18T01:59:19.221Z,100494.45
2017-11-18T02:01:45.176Z,100502.20
2017-11-18T02:04:11.128Z,100495.40
2017-11-18T02:06:37.088Z,100496.38
2017-11-18T02:09:03.057Z,100488.59
2017-11-18T02:11:28.990Z,100485.08
2017-11-18T02:13:54.983Z,100490.67
2017-11-18T02:16:20.921Z,100489.70
2017-11-18T02:18:46.863Z,100488.19
2017-11-18T02:21:12.804Z,100485.02
2017-11-18T02:23:38.728Z,100475.11
2017-11-18T02:26:04.663Z,100466.17
2017-11-18T02:28:30.584Z,100464.92
2017-11-18T02:30:56.530Z,100451.83
2017-11-18T02:33:22.492Z,100454.59
2017-11-18T02:35:48.421Z,100459.39
2017-11-18T02:38:14.403Z,100456.25
2017-11-18T02:40:40.344Z,100453.32
2017-11-18T02:43:06.268Z,100450.71
2017-11-18T02:45:32.226Z,100440.82
2017-11-18T02:47:58.150Z,100431.84
2017-11-18T02:50:24.108Z,100431.04
2017-11-18T02:52:50.050Z,100433.91
2017-11-18T02:55:16.033Z,100430.44
2017-11-18T02:57:41.972Z,100431.96
2017-11-18T03:00:07.935Z,100434.72
2017-11-18T03:02:33.890Z,100434.09
2017-11-18T03:04:59.816Z,100434.70
2017-11-18T03:07:25.740Z,100424.47
2017-11-18T03:09:51.677Z,100415.07
2017-11-18T03:12:17.618Z,100410.44
2017-11-18T03:14:43.589Z,100415.61
2017-11-18T03:17:09.520Z,100412.05
2017-11-18T03:19:35.484Z,100401.38
2017-11-18T03:22:01.449Z,100404.77
2017-11-18T03:24:27.379Z,100406.22
2017-11-18T03:26:53.313Z,100395.12
2017-11-18T03:29:19.273Z,100389.42
2017-11-18T03:31:45.208Z,100382.25
2017-11-18T03:34:11.150Z,100383.66
2017-11-18T03:36:37.089Z,100386.84
2017-11-18T03:39:03.121Z,100382.81
2017-11-18T03:41:29.067Z,100384.08
2017-11-18T03:43:54.997Z,100371.66
2017-11-18T03:46:20.948Z,100374.75
2017-11-18T03:48:46.882Z,100367.11
2017-11-18T03:51:12.828Z,100361.94
2017-11-18T03:53:38.793Z,100356.19
2017-11-18T03:56:04.740Z,100357.66
2017-11-18T03:58:30.684Z,100353.80
2017-11-18T04:00:56.632Z,100347.01
2017-11-18T04:03:22.564Z,100349.47
2017-11-18T04:05:48.506Z,100348.67
2017-11-18T04:08:14.454Z,100347.50
2017-11-18T04:10:40.387Z,100348.97
2017-11-18T04:13:06.336Z,100347.34
2017-11-18T04:15:32.280Z,100348.86
2017-11-18T04:17:58.252Z,100340.28
2017-11-18T04:20:24.189Z,100344.64
2017-11-18T04:22:50.126Z,100340.00
2017-11-18T04:25:16.057Z,100335.41
2017-11-18T04:27:41.989Z,100342.25
2017-11-18T04:30:07.930Z,100335.28
2017-11-18T04:32:33.879Z,100338.09
2017-11-18T04:34:59.824Z,100336.15
2017-11-18T04:37:25.750Z,100333.75
2017-11-18T04:39:51.685Z,100331.58
2017-11-18T04:42:17.608Z,100330.54
2017-11-18T04:44:43.550Z,100325.84
2017-11-18T04:47:09.480Z,100320.55
2017-11-18T04:49:35.404Z,100323.52
2017-11-18T04:52:01.373Z,100318.11
2017-11-18T04:54:27.328Z,100314.94
2017-11-18T04:56:53.261Z,100307.17
2017-11-18T04:59:19.188Z,100306.78
2017-11-18T05:01:45.119Z,100304.82
2017-11-18T05:04:11.195Z,100305.23
2017-11-18T05:06:37.141Z,100292.66
2017-11-18T05:09:03.105Z,100292.73
2017-11-18T05:11:29.038Z,100293.66
2017-11-18T05:13:54.972Z,100297.94
2017-11-18T05:16:21.108Z,100299.50
2017-11-18T05:18:47.039Z,100289.65
2017-11-18T05:21:12.977Z,100285.27
2017-11-18T05:23:38.912Z,100289.52
2017-11-18T05:26:04.853Z,100285.36
2017-11-18T05:28:30.783Z,100286.09
2017-11-18T05:30:56.724Z,100276.06
2017-11-18T05:33:22.652Z,100272.95
2017-11-18T05:35:48.599Z,100277.02
2017-11-18T05:38:14.549Z,100274.97
2017-11-18T05:40:40.507Z,100269.70
2017-11-18T05:43:06.583Z,100272.58
2017-11-18T05:45:32.550Z,100273.56
2017-11-18T05:47:58.497Z,100270.51
2017-11-18T05:50:24.421Z,100270.84
2017-11-18T05:52:50.368Z,100272.48
2017-11-18T05:55:16.353Z,100268.22
2017-11-18T05:57:42.291Z,100268.14
2017-11-18T06:00:08.220Z,100267.54
2017-11-18T06:02:34.269Z,100262.86
2017-11-18T06:05:00.202Z,100263.18
2017-11-18T06:07:26.138Z,100253.08
2017-11-18T06:09:52.078Z,100253.25
2017-11-18T06:12:18.063Z,100251.88
2017-11-18T06:14:44.028Z,100259.80
2017-11-18T06:17:09.989Z,100261.27
2017-11-18T06:19:36.088Z,100256.22
2017-11-18T06:22:02.037Z,100253.02
2017-11-18T06:24:27.964Z,100256.09
2017-11-18T06:26:53.917Z,100256.02
2017-11-18T06:29:19.865Z,100263.94
2017-11-18T06:31:45.824Z,100252.50
2017-11-18T06:34:11.832Z,100257.20
2017-11-18T06:36:37.752Z,100254.50
2017-11-18T06:39:03.714Z,100252.88
2017-11-18T06:41:29.658Z,100255.39
2017-11-18T06:43:55.616Z,100261.37
2017-11-18T06:46:21.561Z,100265.10
2017-11-18T06:48:47.574Z,100269.30
2017-11-18T06:51:13.501Z,100272.08
2017-11-18T06:53:39.437Z,100265.79
2017-11-18T06:56:05.455Z,100257.23
2017-11-18T06:58:31.397Z,100253.64
2017-11-18T07:00:57.328Z,100247.65
2017-11-18T07:03:23.294Z,100247.52
2017-11-18T07:05:49.238Z,100244.73
2017-11-18T07:08:15.182Z,100236.52
2017-11-18T07:10:41.191Z,100234.11
2017-11-18T07:13:07.123Z,100231.08
2017-11-18T07:15:33.068Z,100227.07
2017-11-18T07:17:59.084Z,100229.52
2017-11-18T07:20:25.022Z,100223.05
2017-11-18T07:22:50.977Z,100217.44
2017-11-18T07:25:17.004Z,100227.29
2017-11-18T07:27:42.942Z,100231.82
2017-11-18T07:30:08.873Z,100226.98
2017-11-18T07:32:34.819Z,100227.94
2017-11-18T07:35:00.754Z,100230.09
2017-11-18T07:37:26.704Z,100225.77
2017-11-18T07:39:52.629Z,100223.48
2017-11-18T07:42:18.577Z,100218.41
2017-11-18T07:44:44.796Z,100222.95
2017-11-18T07:47:10.757Z,100224.37
2017-11-18T07:49:36.733Z,100211.14
2017-11-18T07:52:02.694Z,100214.75
2017-11-18T07:54:28.625Z,100214.56
2017-11-18T07:56:54.608Z,100223.41
2017-11-18T07:59:20.568Z,100213.92
2017-11-18T08:01:46.500Z,100217.39
2017-11-18T08:04:12.456Z,100210.18
2017-11-18T08:06:38.400Z,100211.61
2017-11-18T08:09:04.349Z,100210.13
2017-11-18T08:11:30.308Z,100210.42
2017-11-18T08:13:56.333Z,100213.36
2017-11-18T08:16:22.271Z,100205.12
2017-11-18T08:18:48.233Z,100203.70
2017-11-18T08:21:14.221Z,100198.93
2017-11-18T08:23:40.157Z,100192.52
2017-11-18T08:26:06.276Z,100190.33
2017-11-18T08:28:32.213Z,100186.89
2017-11-18T08:30:58.162Z,100182.66
2017-11-18T08:33:24.099Z,100182.73
2017-11-18T08:35:50.042Z,100181.09
2017-11-18T08:38:16.063Z,100167.85
2017-11-18T08:40:41.996Z,100172.48
2017-11-18T08:43:07.962Z,100173.45
2017-11-18T08:45:33.918Z,100179.86
2017-11-18T08:47:59.858Z,100169.61
2017-11-18T08:50:25.785Z,100176.23
2017-11-18T08:52:51.796Z,100165.52
2017-11-18T08:55:17.746Z,100160.17
2017-11-18T08:57:43.702Z,100153.83
2017-11-18T09:00:09.689Z,100155.78
2017-11-18T09:02:35.654Z,100148.38
2017-11-18T09:05:01.609Z,100140.24
2017-11-18T09:07:27.567Z,100140.34
2017-11-18T09:09:53.501Z,100138.53
2017-11-18T09:12:19.497Z,100136.42
2017-11-18T09:14:45.449Z,100136.15
2017-11-18T09:17:11.397Z,100136.94
2017-11-18T09:19:37.355Z,100128.42
2017-11-18T09:22:03.302Z,100127.80
2017-11-18T09:24:29.253Z,100125.23
2017-11-18T09:26:55.197Z,100125.83
2017-11-18T09:29:21.127Z,100123.23
2017-11-18T09:31:47.078Z,100117.98
2017-11-18T09:34:13.087Z,100115.33
2017-11-18T09:36:39.078Z,100111.22
2017-11-18T09:39:05.027Z,100108.43
2017-11-18T09:41:30.973Z,100106.94
2017-11-18T09:43:56.984Z,100103.02
2017-11-18T09:46:22.924Z,100104.31
2017-11-18T09:48:49.073Z,100103.75
2017-11-18T09:51:14.997Z,100103.03
2017-11-18T09:53:41.033Z,100094.93
2017-11-18T09:56:06.970Z,100089.69
2017-11-18T09:58:32.920Z,100092.79
2017-11-18T10:00:58.852Z,100086.93
2017-11-18T10:03:24.803Z,100082.05
2017-11-18T10:05:50.773Z,100086.50
2017-11-18T10:08:16.712Z,100080.73
2017-11-18T10:10:42.699Z,100079.80
2017-11-18T10:13:08.672Z,100077.34
2017-11-18T10:15:34.614Z,100071.53
2017-11-18T10:18:00.613Z,100065.54
2017-11-18T10:20:26.580Z,100061.48
2017-11-18T10:22:52.536Z,100053.48
2017-11-18T10:25:18.487Z,100052.84
2017-11-18T10:27:44.433Z,100043.27
2017-11-18T10:30:10.381Z,100033.86
2017-11-18T10:32:36.490Z,100029.66
2017-11-18T10:35:02.433Z,100035.82
2017-11-18T10:37:28.370Z,100026.57
2017-11-18T10:39:54.321Z,100025.27
2017-11-18T10:42:20.275Z,100022.30
2017-11-18T10:44:46.248Z,100019.45
2017-11-18T10:47:12.189Z,100010.49
2017-11-18T10:49:38.331Z,100009.71
2017-11-18T10:52:04.313Z,100004.68
2017-11-18T10:54:30.361Z,100002.81
2017-11-18T10:56:56.319Z,99997.75
2017-11-18T10:59:22.284Z,99992.45
2017-11-18T11:01:48.978Z,99990.70
2017-11-18T11:04:14.920Z,99991.97
2017-11-18T11:06:40.874Z,99985.11
2017-11-18T11:09:06.839Z,99985.72
2017-11-18T11:11:32.777Z,99984.66
2017-11-18T11:13:58.711Z,99980.84
2017-11-18T11:16:24.659Z,99974.00
2017-11-18T11:18:50.621Z,99973.83
2017-11-18T11:21:16.633Z,99971.41
2017-11-18T11:23:42.586Z,99964.29
2017-11-18T11:26:08.584Z,99963.55
2017-11-18T11:28:34.694Z,99961.13
2017-11-18T11:31:00.657Z,99956.18
2017-11-18T11:33:26.619Z,99956.30
2017-11-18T11:35:52.598Z,99955.80
2017-11-18T11:38:18.541Z,99950.53
2017-11-18T11:40:44.559Z,99943.00
2017-11-18T11:43:10.546Z,99944.45
2017-11-18T11:45:36.531Z,99932.27
2017-11-18T11:48:02.468Z,99929.02
2017-11-18T11:50:28.425Z,99933.17
2017-11-18T11:52:54.409Z,99923.03
2017-11-18T11:55:20.364Z,99925.56
2017-11-18T11:57:46.304Z,99922.95
2017-11-18T12:00:12.269Z,99930.91
2017-11-18T12:02:38.221Z,99924.16
2017-11-18T12:05:04.188Z,99923.56
2017-11-18T12:07:30.165Z,99920.62
2017-11-18T12:09:56.151Z,99916.66
2017-11-18T12:12:22.097Z,99915.59
2017-11-18T12:14:48.065Z,99908.03
2017-11-18T12:17:13.997Z,99917.51
2017-11-18T12:19:39.981Z,99898.75
2017-11-18T12:22:05.929Z,99904.63
2017-11-18T12:24:31.895Z,99903.30
2017-11-18T12:26:57.845Z,99894.26
2017-11-18T12:29:23.785Z,99894.06
2017-11-18T12:31:49.732Z,99888.25
2017-11-18T12:34:15.681Z,99888.80
2017-11-18T12:36:41.651Z,99880.84
2017-11-18T12:39:07.602Z,99872.45
2017-11-18T12:41:33.537Z,99878.02
2017-11-18T12:43:59.494Z,99868.06
2017-11-18T12:46:25.565Z,99865.31
2017-11-18T12:48:51.511Z,99859.82
2017-11-18T12:51:17.468Z,99858.63
2017-11-18T12:53:43.490Z,99852.20
2017-11-18T12:56:09.453Z,99852.34
2017-11-18T12:58:35.409Z,99844.06
2017-11-18T13:01:01.409Z,99836.30
2017-11-18T13:03:27.419Z,99838.31
2017-11-18T13:05:53.391Z,99840.73
2017-11-18T13:08:19.333Z,99837.94
2017-11-18T13:10:45.280Z,99832.63
2017-11-18T13:13:11.250Z,99833.06
2017-11-18T13:15:37.188Z,99829.95
2017-11-18T13:18:03.261Z,99816.26
2017-11-18T13:20:29.201Z,99817.72
2017-11-18T13:22:55.148Z,99812.06
2017-11-18T13:25:21.083Z,99804.42
2017-11-18T13:27:47.021Z,99800.68
2017-11-18T13:30:13.011Z,99795.92
2017-11-18T13:32:38.957Z,99796.80
2017-11-18T13:35:04.876Z,99797.09
2017-11-18T13:37:30.810Z,99795.09
2017-11-18T13:39:56.761Z,99795.72
2017-11-18T13:42:22.702Z,99789.05
2017-11-18T13:44:48.664Z,99788.48
2017-11-18T13:47:14.607Z,99775.41
2017-11-18T13:49:40.545Z,99771.56
2017-11-18T13:52:06.484Z,99772.71
2017-11-18T13:54:32.403Z,99759.09
2017-11-18T13:56:58.359Z,99765.39
2017-11-18T13:59:24.285Z,99771.57
2017-11-18T14:01:50.254Z,99766.60
2017-11-18T14:04:16.194Z,99759.59
2017-11-18T14:06:42.131Z,99762.69
2017-11-18T14:09:08.097Z,99757.23
2017-11-18T14:11:34.044Z,99755.44
2017-11-18T14:14:00.015Z,99752.70
2017-11-18T14:16:25.955Z,99748.36
2017-11-18T14:18:51.900Z,99748.26
2017-11-18T14:21:17.846Z,99744.63
2017-11-18T14:23:43.785Z,99735.53
2017-11-18T14:26:09.732Z,99735.25
2017-11-18T14:28:35.760Z,99728.40
2017-11-18T14:31:01.705Z,99724.97
2017-11-18T14:33:27.641Z,99721.47
2017-11-18T14:35:53.602Z,99716.81
2017-11-18T14:38:19.571Z,99713.80
2017-11-18T14:40:45.517Z,99705.14
2017-11-18T14:43:11.487Z,99699.20
2017-11-18T14:45:37.441Z,99700.55
2017-11-18T14:48:03.424Z,99692.04
2017-11-18T14:50:29.385Z,99692.13
2017-11-18T14:52:55.345Z,99689.94
2017-11-18T14:55:21.394Z,99681.31
2017-11-18T14:57:47.392Z,99672.42
2017-11-18T15:00:13.330Z,99665.27
2017-11-18T15:02:39.289Z,99660.16
2017-11-18T15:05:05.264Z,99656.02
2017-11-18T15:07:31.211Z,99652.47
2017-11-18T15:09:57.194Z,99646.80
2017-11-18T15:12:23.130Z,99635.87
2017-11-18T15:14:49.088Z,99618.45
2017-11-18T15:17:15.113Z,99626.02
2017-11-18T15:19:42.423Z,99626.03
2017-11-18T15:22:08.597Z,99620.72
2017-11-18T15:24:34.807Z,99621.17
2017-11-18T15:27:01.650Z,99633.02
2017-11-18T15:29:27.914Z,99616.61
2017-11-18T15:31:54.174Z,99610.60
2017-11-18T15:34:20.983Z,99598.55
2017-11-18T15:36:47.277Z,99587.75
2017-11-18T15:39:13.446Z,99589.47
2017-11-18T15:41:39.779Z,99583.55
2017-11-18T15:44:06.071Z,99566.13
2017-11-18T15:46:32.248Z,99571.81
2017-11-18T15:48:58.464Z,99547.14
2017-11-18T15:51:24.720Z,99560.44
2017-11-18T15:53:51.079Z,99550.23
2017-11-18T15:56:17.555Z,99547.52
2017-11-18T15:58:43.766Z,99544.67
2017-11-18T16:01:09.976Z,99540.57
2017-11-18T16:03:36.256Z,99542.05
2017-11-18T16:06:02.492Z,99537.09
2017-11-18T16:08:28.768Z,99533.31
2017-11-18T16:10:54.952Z,99523.67
2017-11-18T16:13:21.182Z,99523.73
2017-11-18T16:15:47.365Z,99529.13
2017-11-18T16:18:13.534Z,99522.03
2017-11-18T16:20:40.268Z,99518.35
2017-11-18T16:23:06.536Z,99531.03
2017-11-18T16:25:32.936Z,99528.55
2017-11-18T16:27:59.204Z,99529.07
2017-11-18T16:30:25.448Z,99533.08
2017-11-18T16:32:51.832Z,99520.06
2017-11-18T16:35:18.774Z,99529.55
2017-11-18T16:37:45.109Z,99530.72
2017-11-18T16:40:11.383Z,99518.39
2017-11-18T16:42:37.356Z,99518.41
2017-11-18T16:45:03.289Z,99525.69
2017-11-18T16:47:29.231Z,99519.19
2017-11-18T16:49:55.292Z,99530.39
2017-11-18T16:52:21.368Z,99514.93
2017-11-18T16:54:47.344Z,99506.59
2017-11-18T16:57:13.309Z,99509.55
2017-11-18T16:59:39.253Z,99494.05
2017-11-18T17:02:05.207Z,99498.68
2017-11-18T17:04:31.156Z,99489.91
2017-11-18T17:06:57.088Z,99493.27
2017-11-18T17:09:23.051Z,99488.16
2017-11-18T17:11:49.001Z,99490.91
2017-11-18T17:14:14.940Z,99496.54
2017-11-18T17:16:40.876Z,99494.53
2017-11-18T17:19:06.827Z,99482.55
2017-11-18T17:21:32.796Z,99484.00
2017-11-18T17:23:58.740Z,99472.57
2017-11-18T17:26:24.694Z,99474.19
2017-11-18T17:28:50.655Z,99487.77
2017-11-18T17:31:16.710Z,99472.82
2017-11-18T17:33:42.688Z,99479.72
2017-11-18T17:36:08.639Z,99474.53
2017-11-18T17:38:34.601Z,99467.07
2017-11-18T17:41:00.553Z,99470.33
2017-11-18T17:43:26.509Z,99476.20
2017-11-18T17:45:52.452Z,99457.78
2017-11-18T17:48:18.396Z,99459.41
2017-11-18T17:50:44.344Z,99452.93
2017-11-18T17:53:10.267Z,99455.64
2017-11-18T17:55:36.213Z,99464.00
2017-11-18T17:58:02.149Z,99465.38
2017-11-18T18:00:28.132Z,99456.55
2017-11-18T18:02:54.081Z,99458.98
2017-11-18T18:05:20.029Z,99465.35
2017-11-18T18:07:45.995Z,99482.30
2017-11-18T18:10:11.990Z,99470.86
2017-11-18T18:12:37.930Z,99476.30
2017-11-18T18:15:03.869Z,99473.42
2017-11-18T18:17:29.807Z,99488.69
2017-11-18T18:19:56.939Z,99486.16
2017-11-18T18:22:22.979Z,99478.75
2017-11-18T18:24:48.944Z,99487.22
2017-11-18T18:27:14.942Z,99486.42
2017-11-18T18:29:40.897Z,99483.05
2017-11-18T18:32:06.847Z,99485.45
2017-11-18T18:34:32.813Z,99481.59
2017-11-18T18:36:58.777Z,99482.98
2017-11-18T18:39:24.741Z,99484.35
2017-11-18T18:41:50.703Z,99476.75
2017-11-18T18:44:16.701Z,99490.08
2017-11-18T18:46:42.723Z,99481.56
2017-11-18T18:49:08.716Z,99481.65
2017-11-18T18:51:34.693Z,99495.13
2017-11-18T18:54:00.681Z,99485.83
2017-11-18T18:56:26.709Z,99480.14
2017-11-18T18:58:52.724Z,99482.33
2017-11-18T19:01:18.665Z,99484.22
2017-11-18T19:03:44.789Z,99479.65
2017-11-18T19:06:10.745Z,99473.81
2017-11-18T19:08:36.677Z,99476.84
2017-11-18T19:11:02.626Z,99481.20
2017-11-18T19:13:28.575Z,99476.34
2017-11-18T19:15:54.599Z,99471.87
2017-11-18T19:18:20.599Z,99472.97
2017-11-18T19:20:46.555Z,99469.86
2017-11-18T19:23:12.513Z,99472.88
2017-11-18T19:25:38.484Z,99468.70
2017-11-18T19:28:04.455Z,99477.78
2017-11-18T19:30:30.405Z,99477.90
2017-11-18T19:32:56.349Z,99471.17
2017-11-18T19:35:22.289Z,99476.31
2017-11-18T19:37:48.248Z,99477.12
2017-11-18T19:40:14.326Z,99477.84
2017-11-18T19:42:40.350Z,99478.48
2017-11-18T19:45:06.328Z,99484.38
2017-11-18T19:47:32.286Z,99474.18
2017-11-18T19:49:58.229Z,99478.13
2017-11-18T19:52:24.701Z,99488.63
2017-11-18T19:54:50.635Z,99496.33
2017-11-18T19:57:16.583Z,99491.88
2017-11-18T19:59:42.517Z,99499.33
2017-11-18T20:02:08.513Z,99493.27
2017-11-18T20:04:34.464Z,99487.30
2017-11-18T20:07:00.405Z,99487.30
2017-11-18T20:09:26.359Z,99494.50
2017-11-18T20:11:52.355Z,99500.00
2017-11-18T20:14:18.369Z,99501.44
2017-11-18T20:16:44.329Z,99517.48
2017-11-18T20:19:10.268Z,99510.17
2017-11-18T20:21:36.314Z,99510.98
2017-11-18T20:24:02.280Z,99509.31
2017-11-18T20:26:28.221Z,99512.64
2017-11-18T20:28:54.155Z,99504.77
2017-11-18T20:31:20.222Z,99503.04
2017-11-18T20:33:46.188Z,99499.38
2017-11-18T20:36:12.131Z,99508.44
2017-11-18T20:38:38.175Z,99507.52
2017-11-18T20:41:04.137Z,99510.41
2017-11-18T20:43:30.067Z,99506.58
2017-11-18T20:45:56.032Z,99502.88
2017-11-18T20:48:21.974Z,99506.81
2017-11-18T20:50:47.935Z,99505.17
2017-11-18T20:53:13.879Z,99494.08
2017-11-18T20:55:39.849Z,99500.95
2017-11-18T20:58:05.787Z,99496.22
2017-11-18T21:00:31.781Z,99495.92
2017-11-18T21:02:57.726Z,99488.83
2017-11-18T21:05:23.769Z,99492.55
2017-11-18T21:07:49.702Z,99485.66
2017-11-18T21:10:15.642Z,99486.56
2017-11-18T21:12:41.600Z,99479.03
2017-11-18T21:15:07.549Z,99475.63
2017-11-18T21:17:33.517Z,99487.62
2017-11-18T21:19:59.449Z,99487.21
2017-11-18T21:22:25.404Z,99480.55
2017-11-18T21:24:51.361Z,99486.53
2017-11-18T21:27:17.294Z,99481.64
2017-11-18T21:29:43.379Z,99494.64
2017-11-18T21:32:09.393Z,99487.48
2017-11-18T21:34:35.345Z,99489.83
2017-11-18T21:37:01.317Z,99487.42
2017-11-18T21:39:27.253Z,99494.48
2017-11-18T21:41:53.202Z,99492.44
2017-11-18T21:44:19.132Z,99496.16
2017-11-18T21:46:45.086Z,99497.67
2017-11-18T21:49:11.013Z,99484.95
2017-11-18T21:51:36.934Z,99483.35
2017-11-18T21:54:02.907Z,99487.98
2017-11-18T21:56:28.845Z,99484.31
2017-11-18T21:58:54.809Z,99490.52
2017-11-18T22:01:20.734Z,99480.20
2017-11-18T22:03:46.751Z,99487.14
2017-11-18T22:06:12.683Z,99476.86
2017-11-18T22:08:38.693Z,99477.78
2017-11-18T22:11:04.621Z,99483.32
2017-11-18T22:13:30.562Z,99482.17
2017-11-18T22:15:56.557Z,99483.62
2017-11-18T22:18:22.477Z,99480.33
2017-11-18T22:20:48.451Z,99480.38
2017-11-18T22:23:14.387Z,99484.10
2017-11-18T22:25:40.327Z,99482.64
2017-11-18T22:28:06.266Z,99482.19
2017-11-18T22:30:32.193Z,99479.52
2017-11-18T22:32:58.139Z,99481.42
2017-11-18T22:35:24.079Z,99478.14
2017-11-18T22:37:50.015Z,99477.78
2017-11-18T22:40:15.966Z,99478.05
2017-11-18T22:42:41.888Z,99476.48
2017-11-18T22:45:07.829Z,99483.13
2017-11-18T22:47:33.767Z,99477.63
2017-11-18T22:49:59.704Z,99476.51
2017-11-18T22:52:25.707Z,99477.27
2017-11-18T22:54:51.641Z,99477.56
2017-11-18T22:57:17.588Z,99477.58
2017-11-18T22:59:43.528Z,99470.96
2017-11-18T23:02:09.480Z,99462.20
2017-11-18T23:04:35.418Z,99465.27
2017-11-18T23:07:01.373Z,99455.91
2017-11-18T23:09:27.324Z,99460.38
2017-11-18T23:11:53.254Z,99463.89
2017-11-18T23:14:19.176Z,99465.27
2017-11-18T23:16:45.325Z,99466.00
2017-11-18T23:19:11.274Z,99464.45
2017-11-18T23:21:37.227Z,99463.49
2017-11-18T23:24:03.165Z,99457.34
2017-11-18T23:26:29.107Z,99453.05
2017-11-18T23:28:55.076Z,99452.77
2017-11-18T23:31:21.000Z,99453.77
2017-11-18T23:33:46.931Z,99447.33
2017-11-18T23:36:12.885Z,99446.08
2017-11-18T23:38:38.901Z,99438.48
2017-11-18T23:41:04.864Z,99450.55
2017-11-18T23:43:30.844Z,99445.34
2017-11-18T23:45:56.776Z,99441.52
2017-11-18T23:48:22.718Z,99439.41
2017-11-18T23:50:48.673Z,99432.34
2017-11-18T23:53:14.612Z,99437.44
2017-11-18T23:55:40.591Z,99428.63
2017-11-18T23:58:06.546Z,99424.24
